Time;durP1;ratioP1;P1;durP2;ratioP2;P2;SDS_P1;SDS_P2;PMS_P1;PMS_P2;Temp;Humidity;BMP_temperature;BMP_pressure;BME280_temperature;BME280_humidity;BME280_pressure;Samples;Min_cycle;Max_cycle;Signal;HPM_P1;HPM_P2
2022/09/12 00:01:10;;;;;;;6.67;5.87;;;-40.00;99.90;;;;;;5096453;28;20183;-75
2022/09/12 00:03:37;;;;;;;6.13;5.63;;;-40.00;99.90;;;;;;5096902;28;20173;-71
2022/09/12 00:06:27;;;;;;;5.90;5.40;;;-40.00;99.90;;;;;;5096916;28;20205;-74
2022/09/12 00:09:03;;;;;;;5.63;5.17;;;-40.00;99.90;;;;;;5096566;28;20186;-77
2022/09/12 00:11:30;;;;;;;6.57;5.97;;;-40.00;99.90;;;;;;5096734;28;20163;-67
2022/09/12 00:13:58;;;;;;;5.60;5.00;;;-40.00;99.90;;;;;;5094759;28;20179;-73
2022/09/12 00:16:26;;;;;;;7.67;5.70;;;-40.00;99.90;;;;;;5096560;28;20167;-67
2022/09/12 00:18:52;;;;;;;8.53;5.63;;;-40.00;99.90;;;;;;5096713;28;20163;-69
2022/09/12 00:21:19;;;;;;;11.03;6.00;;;-40.00;99.90;;;;;;5096730;28;20170;-66
2022/09/12 00:23:45;;;;;;;6.40;5.80;;;-40.00;99.90;;;;;;5096647;28;20182;-67
2022/09/12 00:26:11;;;;;;;6.50;5.90;;;-40.00;99.90;;;;;;5096416;28;20267;-67
2022/09/12 00:28:39;;;;;;;8.50;5.03;;;-40.00;99.90;;;;;;5096404;28;20159;-68
2022/09/12 00:31:07;;;;;;;5.93;5.37;;;-40.00;99.90;;;;;;5096117;28;20171;-68
2022/09/12 00:33:33;;;;;;;6.03;5.63;;;-40.00;99.90;;;;;;5095650;28;20248;-79
2022/09/12 00:36:03;;;;;;;6.13;5.63;;;-40.00;99.90;;;;;;5095444;28;20171;-80
2022/09/12 00:38:28;;;;;;;6.27;5.67;;;-40.00;99.90;;;;;;5096387;28;20162;-73
2022/09/12 00:40:54;;;;;;;5.47;5.00;;;-40.00;99.90;;;;;;5096178;28;20315;-76
2022/09/12 00:43:29;;;;;;;6.03;5.53;;;-40.00;99.90;;;;;;5095247;28;20224;-80
2022/09/12 00:45:56;;;;;;;6.47;5.87;;;-40.00;99.90;;;;;;5094936;28;20522;-75
2022/09/12 00:48:31;;;;;;;5.70;5.23;;;-40.00;99.90;;;;;;5095045;28;20296;-80
2022/09/12 00:50:57;;;;;;;6.37;5.77;;;-40.00;99.90;;;;;;5096230;28;20174;-73
2022/09/12 00:53:24;;;;;;;7.13;6.10;;;-40.00;99.90;;;;;;5096077;28;20158;-74
2022/09/12 00:55:51;;;;;;;5.33;4.87;;;-40.00;99.90;;;;;;5095668;28;20167;-73
2022/09/12 00:58:25;;;;;;;5.87;5.37;;;-40.00;99.90;;;;;;5095690;28;20232;-76
2022/09/12 01:00:51;;;;;;;5.73;5.27;;;-40.00;99.90;;;;;;5095575;28;20258;-78
2022/09/12 01:03:21;;;;;;;6.60;6.00;;;-40.00;99.90;;;;;;5095030;28;20163;-77
2022/09/12 01:06:03;;;;;;;5.53;5.03;;;-40.00;99.90;;;;;;5096252;28;20248;-74
2022/09/12 01:08:30;;;;;;;7.87;5.67;;;-40.00;99.90;;;;;;5096168;28;20249;-75
2022/09/12 01:10:56;;;;;;;6.63;6.00;;;-40.00;99.90;;;;;;5096102;28;20167;-71
2022/09/12 01:13:23;;;;;;;5.93;5.37;;;-40.00;99.90;;;;;;5095995;28;20216;-73
2022/09/12 01:15:49;;;;;;;10.43;5.73;;;-40.00;99.90;;;;;;5095710;28;20189;-66
2022/09/12 01:18:44;;;;;;;6.17;4.87;;;-40.00;99.90;;;;;;5094835;28;20174;-75
2022/09/12 01:21:27;;;;;;;6.07;5.43;;;-40.00;99.90;;;;;;5058675;28;20191;-72
2022/09/12 01:24:14;;;;;;;5.83;5.23;;;-40.00;99.90;;;;;;5094828;28;20240;-77
2022/09/12 01:26:59;;;;;;;6.30;5.07;;;-40.00;99.90;;;;;;5095398;28;20190;-80
2022/09/12 01:30:01;;;;;;;6.37;5.43;;;-40.00;99.90;;;;;;5095522;28;20171;-81
2022/09/12 01:33:04;;;;;;;7.30;6.10;;;-40.00;99.90;;;;;;5095712;28;20587;-78
2022/09/12 01:35:44;;;;;;;7.13;6.57;;;-40.00;99.90;;;;;;5096199;28;20585;-70
2022/09/12 01:38:41;;;;;;;7.13;6.43;;;-40.00;99.90;;;;;;5097425;28;20162;-77
2022/09/12 01:41:44;;;;;;;5.90;5.37;;;-40.00;99.90;;;;;;5096500;28;20242;-81
2022/09/12 01:44:22;;;;;;;8.10;6.03;;;-40.00;99.90;;;;;;5096844;28;20464;-81
2022/09/12 01:47:04;;;;;;;5.90;5.50;;;-40.00;99.90;;;;;;5097306;28;20221;-78
2022/09/12 01:49:56;;;;;;;6.47;5.97;;;-40.00;99.90;;;;;;5095395;28;20162;-76
2022/09/12 01:52:27;;;;;;;7.03;6.43;;;-40.00;99.90;;;;;;5091387;28;20549;-69
2022/09/12 01:55:03;;;;;;;6.03;5.53;;;-40.00;99.90;;;;;;5095728;28;20288;-69
2022/09/12 01:57:42;;;;;;;6.07;5.57;;;-40.00;99.90;;;;;;5095191;28;20240;-72
2022/09/12 02:00:11;;;;;;;6.40;5.80;;;-40.00;99.90;;;;;;5094502;28;20629;-78
2022/09/12 02:02:50;;;;;;;7.40;6.33;;;-40.00;99.90;;;;;;5095273;28;20196;-80
2022/09/12 02:05:31;;;;;;;6.30;5.27;;;-40.00;99.90;;;;;;5095375;28;20170;-68
2022/09/12 02:08:05;;;;;;;6.17;5.67;;;-40.00;99.90;;;;;;5094766;28;20194;-70
2022/09/12 02:10:41;;;;;;;5.63;5.23;;;-40.00;99.90;;;;;;5095822;28;20226;-70
2022/09/12 02:13:27;;;;;;;8.13;5.30;;;-40.00;99.90;;;;;;5098944;28;20174;-72
2022/09/12 02:15:59;;;;;;;8.10;6.30;;;-40.00;99.90;;;;;;5099305;28;20308;-71
2022/09/12 02:18:29;;;;;;;7.07;6.30;;;-40.00;99.90;;;;;;5098219;28;20159;-77
2022/09/12 02:20:55;;;;;;;5.90;5.47;;;-40.00;99.90;;;;;;5098760;28;20635;-69
2022/09/12 02:23:28;;;;;;;7.23;5.73;;;-40.00;99.90;;;;;;5099151;28;20163;-69
2022/09/12 02:26:02;;;;;;;5.80;5.40;;;-40.00;99.90;;;;;;5099031;28;20636;-70
2022/09/12 02:28:35;;;;;;;6.87;5.97;;;-40.00;99.90;;;;;;5097970;28;20170;-73
2022/09/12 02:31:10;;;;;;;6.53;5.63;;;-40.00;99.90;;;;;;5099072;28;20609;-71
2022/09/12 02:33:58;;;;;;;12.40;6.30;;;-40.00;99.90;;;;;;5098553;28;20159;-76
2022/09/12 02:36:34;;;;;;;6.30;5.80;;;-40.00;99.90;;;;;;5098840;28;20193;-75
2022/09/12 02:39:00;;;;;;;7.33;5.77;;;-40.00;99.90;;;;;;5098477;28;20245;-69
2022/09/12 02:41:26;;;;;;;5.87;5.30;;;-40.00;99.90;;;;;;5097483;28;20594;-69
2022/09/12 02:43:52;;;;;;;7.27;6.30;;;-40.00;99.90;;;;;;5098507;28;20250;-71
2022/09/12 02:46:25;;;;;;;5.83;5.23;;;-40.00;99.90;;;;;;5098567;28;20601;-72
2022/09/12 02:48:52;;;;;;;5.90;5.40;;;-40.00;99.90;;;;;;5098639;28;20155;-73
2022/09/12 02:51:17;;;;;;;6.27;5.77;;;-40.00;99.90;;;;;;5098417;28;20210;-71
2022/09/12 02:53:43;;;;;;;6.10;5.60;;;-40.00;99.90;;;;;;5098353;28;20306;-72
2022/09/12 02:56:16;;;;;;;5.83;5.43;;;-40.00;99.90;;;;;;5097157;28;20175;-72
2022/09/12 02:58:42;;;;;;;5.53;5.03;;;-40.00;99.90;;;;;;5098343;28;20210;-68
2022/09/12 03:01:19;;;;;;;9.07;5.10;;;-40.00;99.90;;;;;;5097229;28;20586;-71
2022/09/12 03:04:08;;;;;;;5.80;5.30;;;-40.00;99.90;;;;;;5098372;28;20244;-68
2022/09/12 03:06:49;;;;;;;7.07;6.37;;;-40.00;99.90;;;;;;5098293;28;20201;-69
2022/09/12 03:09:46;;;;;;;6.07;5.47;;;-40.00;99.90;;;;;;5098131;28;20169;-69
2022/09/12 03:12:31;;;;;;;6.57;5.97;;;-40.00;99.90;;;;;;5098248;28;20174;-71
2022/09/12 03:15:14;;;;;;;6.83;6.33;;;-40.00;99.90;;;;;;5098118;28;20469;-75
2022/09/12 03:17:45;;;;;;;11.13;6.87;;;-40.00;99.90;;;;;;5098313;28;20178;-67
2022/09/12 03:20:32;;;;;;;6.37;5.87;;;-40.00;99.90;;;;;;5098035;28;20627;-73
2022/09/12 03:23:21;;;;;;;7.37;6.63;;;-40.00;99.90;;;;;;5097471;28;20167;-77
2022/09/12 03:25:56;;;;;;;6.83;5.27;;;-40.00;99.90;;;;;;5095812;28;20641;-74
2022/09/12 03:28:22;;;;;;;6.07;5.33;;;-40.00;99.90;;;;;;5096562;28;20203;-72
2022/09/12 03:30:54;;;;;;;6.87;6.37;;;-40.00;99.90;;;;;;5097672;28;20579;-82
2022/09/12 03:33:22;;;;;;;5.93;5.47;;;-40.00;99.90;;;;;;5096597;28;20178;-78
2022/09/12 03:35:49;;;;;;;6.20;5.70;;;-40.00;99.90;;;;;;5096038;28;20210;-74
2022/09/12 03:38:15;;;;;;;6.10;5.50;;;-40.00;99.90;;;;;;5097456;28;20166;-70
2022/09/12 03:40:41;;;;;;;9.00;7.73;;;-40.00;99.90;;;;;;5097064;28;20174;-72
2022/09/12 03:43:08;;;;;;;8.97;6.57;;;-40.00;99.90;;;;;;5097374;28;20578;-72
2022/09/12 03:45:35;;;;;;;9.00;5.70;;;-40.00;99.90;;;;;;5097436;28;20201;-69
2022/09/12 03:48:00;;;;;;;8.60;6.63;;;-40.00;99.90;;;;;;5097134;28;20642;-73
2022/09/12 03:50:27;;;;;;;14.40;6.47;;;-40.00;99.90;;;;;;5097360;28;20211;-75
2022/09/12 03:52:52;;;;;;;8.50;6.57;;;-40.00;99.90;;;;;;5096436;28;20187;-75
2022/09/12 03:55:18;;;;;;;6.33;5.57;;;-40.00;99.90;;;;;;5096946;28;20173;-71
2022/09/12 03:57:44;;;;;;;7.10;6.40;;;-40.00;99.90;;;;;;5096429;28;20175;-71
2022/09/12 04:00:10;;;;;;;8.77;6.23;;;-40.00;99.90;;;;;;5096947;28;20299;-73
2022/09/12 04:02:36;;;;;;;8.83;6.03;;;-40.00;99.90;;;;;;5096592;28;20174;-78
2022/09/12 04:05:02;;;;;;;7.33;6.63;;;-40.00;99.90;;;;;;5097207;28;20177;-77
2022/09/12 04:07:28;;;;;;;6.70;6.13;;;-40.00;99.90;;;;;;5097013;28;20264;-69
2022/09/12 04:09:55;;;;;;;6.23;5.63;;;-40.00;99.90;;;;;;5096861;28;20577;-71
2022/09/12 04:12:21;;;;;;;6.47;5.97;;;-40.00;99.90;;;;;;5096533;28;20204;-77
2022/09/12 04:14:47;;;;;;;11.23;6.13;;;-40.00;99.90;;;;;;5097058;28;20167;-73
2022/09/12 04:17:13;;;;;;;6.27;5.67;;;-40.00;99.90;;;;;;5096918;28;20254;-75
2022/09/12 04:19:39;;;;;;;6.70;5.43;;;-40.00;99.90;;;;;;5096826;28;20175;-69
2022/09/12 04:22:05;;;;;;;6.27;5.77;;;-40.00;99.90;;;;;;5096211;28;20178;-68
2022/09/12 04:24:31;;;;;;;7.33;6.47;;;-40.00;99.90;;;;;;5096626;28;20223;-74
2022/09/12 04:26:57;;;;;;;11.77;5.70;;;-40.00;99.90;;;;;;5096415;28;20210;-69
2022/09/12 04:29:22;;;;;;;6.60;6.07;;;-40.00;99.90;;;;;;5096135;28;20171;-74
2022/09/12 04:31:48;;;;;;;6.20;5.67;;;-40.00;99.90;;;;;;5096407;28;20178;-73
2022/09/12 04:34:14;;;;;;;7.07;6.57;;;-40.00;99.90;;;;;;5095596;28;20605;-79
2022/09/12 04:36:40;;;;;;;6.23;5.70;;;-40.00;99.90;;;;;;5096500;28;20251;-75
2022/09/12 04:39:06;;;;;;;6.27;5.67;;;-40.00;99.90;;;;;;5095255;28;20175;-79
2022/09/12 04:41:38;;;;;;;10.33;6.47;;;-40.00;99.90;;;;;;5096634;28;20163;-76
2022/09/12 04:44:07;;;;;;;6.97;5.90;;;-40.00;99.90;;;;;;5096189;28;20617;-74
2022/09/12 04:46:35;;;;;;;9.63;6.43;;;-40.00;99.90;;;;;;5096481;28;20275;-84
2022/09/12 04:49:02;;;;;;;7.67;7.07;;;-40.00;99.90;;;;;;5096218;28;20273;-84
2022/09/12 04:51:33;;;;;;;7.03;6.43;;;-40.00;99.90;;;;;;5096132;28;20493;-82
2022/09/12 04:54:04;;;;;;;14.60;7.80;;;-40.00;99.90;;;;;;5096595;28;20586;-82
2022/09/12 04:56:30;;;;;;;12.30;7.90;;;-40.00;99.90;;;;;;5095787;28;20246;-79
2022/09/12 04:58:57;;;;;;;14.63;7.63;;;-40.00;99.90;;;;;;5096391;28;20182;-82
2022/09/12 05:01:24;;;;;;;9.43;8.47;;;-40.00;99.90;;;;;;5096301;28;20262;-72
2022/09/12 05:03:50;;;;;;;9.13;8.23;;;-40.00;99.90;;;;;;5095555;28;20170;-75
2022/09/12 05:06:19;;;;;;;9.20;8.30;;;-40.00;99.90;;;;;;5095773;28;20197;-77
2022/09/12 05:08:46;;;;;;;9.83;8.37;;;-40.00;99.90;;;;;;5095961;28;20161;-74
2022/09/12 05:11:17;;;;;;;9.07;8.17;;;-40.00;99.90;;;;;;5095088;28;20497;-71
2022/09/12 05:13:43;;;;;;;9.73;8.17;;;-40.00;99.90;;;;;;5095973;28;20585;-76
2022/09/12 05:16:16;;;;;;;10.03;8.57;;;-40.00;99.90;;;;;;5095872;28;20571;-73
2022/09/12 05:18:43;;;;;;;9.77;8.77;;;-40.00;99.90;;;;;;5095826;28;20204;-75
2022/09/12 05:21:12;;;;;;;11.37;7.73;;;-40.00;99.90;;;;;;5095297;28;20166;-73
2022/09/12 05:23:38;;;;;;;10.27;8.27;;;-40.00;99.90;;;;;;5095041;28;20171;-78
2022/09/12 05:26:05;;;;;;;11.23;8.57;;;-40.00;99.90;;;;;;5096175;28;20238;-81
2022/09/12 05:28:34;;;;;;;11.00;9.87;;;-40.00;99.90;;;;;;5095692;28;20431;-80
2022/09/12 05:31:09;;;;;;;10.97;9.67;;;-40.00;99.90;;;;;;5095917;28;20167;-76
2022/09/12 05:33:36;;;;;;;10.80;9.53;;;-40.00;99.90;;;;;;5094632;28;20191;-78
2022/09/12 05:36:03;;;;;;;9.93;9.03;;;-40.00;99.90;;;;;;5095474;28;20171;-79
2022/09/12 05:38:29;;;;;;;10.17;9.23;;;-40.00;99.90;;;;;;5095787;28;20170;-73
2022/09/12 05:41:06;;;;;;;10.57;9.63;;;-40.00;99.90;;;;;;5095824;28;20173;-80
2022/09/12 05:43:33;;;;;;;14.80;9.73;;;-40.00;99.90;;;;;;5096029;28;20489;-79
2022/09/12 05:46:09;;;;;;;18.93;9.87;;;-40.00;99.90;;;;;;5097438;28;20198;-70
2022/09/12 05:48:36;;;;;;;11.20;10.17;;;-40.00;99.90;;;;;;5099760;28;20166;-78
2022/09/12 05:51:10;;;;;;;10.87;8.80;;;-40.00;99.90;;;;;;5099600;28;20257;-70
2022/09/12 05:53:37;;;;;;;13.63;8.73;;;-40.00;99.90;;;;;;5099571;28;20194;-73
2022/09/12 05:56:08;;;;;;;10.60;9.53;;;-40.00;99.90;;;;;;5099656;28;20178;-65
2022/09/12 05:58:36;;;;;;;10.47;9.57;;;-40.00;99.90;;;;;;5098281;28;20231;-68
2022/09/12 06:01:04;;;;;;;11.10;9.83;;;-40.00;99.90;;;;;;5099551;28;20604;-71
2022/09/12 06:03:30;;;;;;;10.77;9.87;;;-40.00;99.90;;;;;;5098440;28;20608;-69
2022/09/12 06:05:56;;;;;;;17.90;9.30;;;-40.00;99.90;;;;;;5098924;28;20208;-73
2022/09/12 06:08:21;;;;;;;12.83;9.83;;;-40.00;99.90;;;;;;5098624;28;20201;-68
2022/09/12 06:10:48;;;;;;;10.80;9.67;;;-40.00;99.90;;;;;;5098761;28;20162;-69
2022/09/12 06:13:14;;;;;;;10.43;9.23;;;-40.00;99.90;;;;;;5099157;28;20195;-72
2022/09/12 06:15:39;;;;;;;12.13;9.20;;;-40.00;99.90;;;;;;5098106;28;20205;-67
2022/09/12 06:18:05;;;;;;;20.57;10.67;;;-40.00;99.90;;;;;;5099212;28;20166;-71
2022/09/12 06:20:31;;;;;;;14.93;8.67;;;-40.00;99.90;;;;;;5098732;28;20486;-68
2022/09/12 06:22:56;;;;;;;12.20;10.40;;;-40.00;99.90;;;;;;5099030;28;20162;-69
2022/09/12 06:25:22;;;;;;;12.57;10.13;;;-40.00;99.90;;;;;;5099141;28;20165;-75
2022/09/12 06:27:48;;;;;;;13.30;10.77;;;-40.00;99.90;;;;;;5098003;28;20177;-68
2022/09/12 06:30:14;;;;;;;22.67;10.23;;;-40.00;99.90;;;;;;5098046;28;20179;-72
2022/09/12 06:32:39;;;;;;;15.07;9.90;;;-40.00;99.90;;;;;;5098925;28;20206;-67
2022/09/12 06:35:05;;;;;;;23.53;10.97;;;-40.00;99.90;;;;;;5098500;28;20186;-71
2022/09/12 06:37:31;;;;;;;13.67;10.63;;;-40.00;99.90;;;;;;5098895;28;20562;-71
2022/09/12 06:39:57;;;;;;;17.77;11.43;;;-40.00;99.90;;;;;;5098724;28;20220;-70
2022/09/12 06:42:23;;;;;;;12.00;10.70;;;-40.00;99.90;;;;;;5098693;28;20261;-69
2022/09/12 06:44:49;;;;;;;11.33;9.00;;;-40.00;99.90;;;;;;5098671;28;20265;-72
2022/09/12 06:47:15;;;;;;;14.03;11.10;;;-40.00;99.90;;;;;;5098210;28;20475;-70
2022/09/12 06:49:40;;;;;;;10.90;9.93;;;-40.00;99.90;;;;;;5098138;28;20222;-73
2022/09/12 06:52:06;;;;;;;11.37;9.77;;;-40.00;99.90;;;;;;5097873;28;20190;-71
2022/09/12 06:54:32;;;;;;;10.67;9.50;;;-40.00;99.90;;;;;;5097248;28;20231;-68
2022/09/12 06:56:57;;;;;;;11.47;9.40;;;-40.00;99.90;;;;;;5096475;28;20269;-68
2022/09/12 06:59:23;;;;;;;18.30;11.73;;;-40.00;99.90;;;;;;5097960;28;20639;-71
2022/09/12 07:01:49;;;;;;;15.97;10.03;;;-40.00;99.90;;;;;;5096782;28;20654;-72
2022/09/12 07:04:15;;;;;;;9.13;8.20;;;-40.00;99.90;;;;;;5098271;28;20171;-74
2022/09/12 07:06:43;;;;;;;11.37;10.10;;;-40.00;99.90;;;;;;5098383;28;20522;-73
2022/09/12 07:09:11;;;;;;;13.17;10.13;;;-40.00;99.90;;;;;;5098125;28;20253;-73
2022/09/12 07:11:39;;;;;;;10.17;9.03;;;-40.00;99.90;;;;;;5098060;28;20569;-69
2022/09/12 07:14:07;;;;;;;9.77;8.87;;;-40.00;99.90;;;;;;5098101;28;20155;-69
2022/09/12 07:16:35;;;;;;;9.33;8.53;;;-40.00;99.90;;;;;;5097356;28;20167;-68
2022/09/12 07:19:03;;;;;;;8.43;7.57;;;-40.00;99.90;;;;;;5097367;28;20166;-69
2022/09/12 07:21:29;;;;;;;9.17;8.20;;;-40.00;99.90;;;;;;5095976;28;20253;-70
2022/09/12 07:23:56;;;;;;;9.07;8.00;;;-40.00;99.90;;;;;;5096852;28;20261;-67
2022/09/12 07:26:23;;;;;;;8.40;7.80;;;-40.00;99.90;;;;;;5097394;28;20637;-71
2022/09/12 07:28:52;;;;;;;8.73;7.93;;;-40.00;99.90;;;;;;5097738;28;20445;-75
2022/09/12 07:31:22;;;;;;;7.47;6.70;;;-40.00;99.90;;;;;;5097416;28;20194;-74
2022/09/12 07:33:49;;;;;;;8.50;7.60;;;-40.00;99.90;;;;;;5097598;28;20167;-67
2022/09/12 07:36:17;;;;;;;8.70;5.67;;;-40.00;99.90;;;;;;5097561;28;20170;-73
2022/09/12 07:38:45;;;;;;;7.53;6.50;;;-40.00;99.90;;;;;;5097564;28;20162;-66
2022/09/12 07:41:14;;;;;;;7.70;6.43;;;-40.00;99.90;;;;;;5097433;28;20171;-73
2022/09/12 07:43:43;;;;;;;8.53;6.77;;;-40.00;99.90;;;;;;5097802;28;20457;-69
2022/09/12 07:46:10;;;;;;;6.97;6.30;;;-40.00;99.90;;;;;;5097004;28;20252;-67
2022/09/12 07:48:37;;;;;;;6.43;5.87;;;-40.00;99.90;;;;;;5097273;28;20569;-72
2022/09/12 07:51:05;;;;;;;6.43;6.03;;;-40.00;99.90;;;;;;5097345;28;20613;-69
2022/09/12 07:53:37;;;;;;;5.13;4.83;;;-40.00;99.90;;;;;;5097500;28;20159;-74
2022/09/12 07:56:04;;;;;;;9.10;6.37;;;-40.00;99.90;;;;;;5097235;28;20162;-68
2022/09/12 07:58:31;;;;;;;7.77;6.00;;;-40.00;99.90;;;;;;5095872;28;20171;-67
2022/09/12 08:01:11;;;;;;;7.93;5.90;;;-40.00;99.90;;;;;;5096728;28;20194;-71
2022/09/12 08:03:41;;;;;;;7.13;6.17;;;-40.00;99.90;;;;;;5097184;28;20159;-79
2022/09/12 08:06:12;;;;;;;4.97;4.57;;;-40.00;99.90;;;;;;5095761;28;20509;-69
2022/09/12 08:08:39;;;;;;;9.63;6.20;;;-40.00;99.90;;;;;;5095828;28;20159;-71
2022/09/12 08:11:10;;;;;;;5.27;4.63;;;-40.00;99.90;;;;;;5097129;28;20230;-71
2022/09/12 08:13:38;;;;;;;6.33;5.80;;;-40.00;99.90;;;;;;5097041;28;20175;-67
2022/09/12 08:16:07;;;;;;;5.03;4.63;;;-40.00;99.90;;;;;;5097875;28;20175;-70
2022/09/12 08:18:35;;;;;;;5.27;4.53;;;-40.00;99.90;;;;;;5097848;28;20578;-72
2022/09/12 08:21:03;;;;;;;4.83;4.43;;;-40.00;99.90;;;;;;5096903;28;20166;-68
2022/09/12 08:23:30;;;;;;;4.93;4.20;;;-40.00;99.90;;;;;;5096385;28;20186;-67
2022/09/12 08:25:57;;;;;;;4.83;4.40;;;-40.00;99.90;;;;;;5097074;28;20198;-68
2022/09/12 08:28:24;;;;;;;7.17;4.80;;;-40.00;99.90;;;;;;5097077;28;20162;-76
2022/09/12 08:30:51;;;;;;;5.00;4.70;;;-40.00;99.90;;;;;;5096631;28;20221;-68
2022/09/12 08:33:17;;;;;;;5.50;5.07;;;-40.00;99.90;;;;;;5096536;28;20167;-68
2022/09/12 08:35:43;;;;;;;5.80;5.23;;;-40.00;99.90;;;;;;5096608;28;20228;-72
2022/09/12 08:38:08;;;;;;;4.87;4.47;;;-40.00;99.90;;;;;;5096672;28;20582;-71
2022/09/12 08:40:52;;;;;;;5.40;5.03;;;-40.00;99.90;;;;;;5097191;28;20174;-70
2022/09/12 08:43:39;;;;;;;6.47;4.43;;;-40.00;99.90;;;;;;5097092;28;20173;-69
2022/09/12 08:46:17;;;;;;;5.63;4.37;;;-40.00;99.90;;;;;;5096767;28;20194;-69
2022/09/12 08:48:45;;;;;;;5.87;5.37;;;-40.00;99.90;;;;;;5096271;28;20224;-76
2022/09/12 08:51:15;;;;;;;5.00;4.57;;;-40.00;99.90;;;;;;5096319;28;20206;-71
2022/09/12 08:53:42;;;;;;;5.13;4.40;;;-40.00;99.90;;;;;;5095860;28;20432;-70
2022/09/12 08:56:10;;;;;;;4.73;4.40;;;-40.00;99.90;;;;;;5084479;28;20183;-74
2022/09/12 08:58:40;;;;;;;5.40;4.70;;;-40.00;99.90;;;;;;5082515;28;20174;-74
2022/09/12 09:01:27;;;;;;;8.13;4.07;;;-40.00;99.90;;;;;;5075478;28;20192;-70
2022/09/12 09:04:07;;;;;;;5.70;4.70;;;-40.00;99.90;;;;;;5075218;28;20194;-69
2022/09/12 09:07:02;;;;;;;5.23;4.10;;;-40.00;99.90;;;;;;5078803;28;20248;-70
2022/09/12 09:09:48;;;;;;;6.83;3.70;;;-40.00;99.90;;;;;;5085347;28;20563;-73
2022/09/12 09:12:20;;;;;;;5.87;4.03;;;-40.00;99.90;;;;;;5082923;28;20178;-69
2022/09/12 09:14:52;;;;;;;4.33;3.93;;;-40.00;99.90;;;;;;5075363;28;20280;-70
2022/09/12 09:17:41;;;;;;;6.77;3.77;;;-40.00;99.90;;;;;;5074283;28;20491;-70
2022/09/12 09:20:31;;;;;;;4.83;3.67;;;-40.00;99.90;;;;;;5079573;28;20185;-76
2022/09/12 09:23:07;;;;;;;5.00;4.60;;;-40.00;99.90;;;;;;5075372;28;20190;-72
2022/09/12 09:26:13;;;;;;;4.70;4.30;;;-40.00;99.90;;;;;;5081220;28;20194;-73
2022/09/12 09:29:00;;;;;;;4.43;4.10;;;-40.00;99.90;;;;;;5075782;28;20175;-72
2022/09/12 09:31:32;;;;;;;5.80;4.60;;;-40.00;99.90;;;;;;5075379;28;20218;-73
2022/09/12 09:33:58;;;;;;;4.23;3.90;;;-40.00;99.90;;;;;;5080318;28;20579;-69
2022/09/12 09:36:42;;;;;;;9.10;4.20;;;-40.00;99.90;;;;;;5077597;28;20496;-73
2022/09/12 09:39:27;;;;;;;5.53;4.30;;;-40.00;99.90;;;;;;5078991;28;20312;-69
2022/09/12 09:42:22;;;;;;;3.90;3.30;;;-40.00;99.90;;;;;;5084810;28;20205;-73
2022/09/12 09:44:52;;;;;;;3.73;3.43;;;-40.00;99.90;;;;;;5074280;28;20187;-73
2022/09/12 09:47:18;;;;;;;4.27;3.03;;;-40.00;99.90;;;;;;5077442;28;20207;-70
2022/09/12 09:49:45;;;;;;;4.80;4.23;;;-40.00;99.90;;;;;;5076185;28;20700;-70
2022/09/12 09:52:16;;;;;;;4.07;3.17;;;-40.00;99.90;;;;;;5078505;28;20195;-69
2022/09/12 09:54:49;;;;;;;3.63;2.90;;;-40.00;99.90;;;;;;5080733;28;20214;-75
2022/09/12 09:57:33;;;;;;;3.07;2.90;;;-40.00;99.90;;;;;;5079938;28;20175;-69
2022/09/12 10:00:24;;;;;;;2.43;2.23;;;-40.00;99.90;;;;;;5078414;28;20199;-70
2022/09/12 10:03:08;;;;;;;2.00;1.90;;;-40.00;99.90;;;;;;5079476;28;20187;-71
2022/09/12 10:05:48;;;;;;;2.47;2.10;;;-40.00;97.50;;;;;;5081251;28;20197;-72
2022/09/12 10:08:25;;;;;;;7.13;2.57;;;-40.00;99.90;;;;;;5074590;28;20179;-72
2022/09/12 10:11:17;;;;;;;2.10;2.00;;;-40.00;99.90;;;;;;5075363;28;20489;-75
2022/09/12 10:13:55;;;;;;;2.73;2.53;;;-40.00;98.80;;;;;;5079443;28;20195;-70
2022/09/12 10:16:33;;;;;;;2.47;2.37;;;-40.00;96.90;;;;;;5078079;28;20174;-72
2022/09/12 10:19:01;;;;;;;2.40;2.20;;;-40.00;97.80;;;;;;5080387;28;20187;-71
2022/09/12 10:21:41;;;;;;;3.93;2.93;;;-40.00;97.60;;;;;;5084709;28;20185;-77
2022/09/12 10:24:29;;;;;;;2.10;2.00;;;-40.00;96.40;;;;;;5078352;28;20274;-71
2022/09/12 10:26:56;;;;;;;4.47;2.00;;;-40.00;97.40;;;;;;5071549;28;20721;-71
2022/09/12 10:29:38;;;;;;;3.57;2.50;;;-40.00;96.50;;;;;;5073453;28;20176;-71
2022/09/12 10:32:07;;;;;;;2.97;2.67;;;-40.00;97.20;;;;;;5075447;28;20187;-70
2022/09/12 10:34:42;;;;;;;4.03;2.60;;;-40.00;95.80;;;;;;5086793;28;20179;-70
2022/09/12 10:37:34;;;;;;;1.77;1.67;;;-40.00;95.00;;;;;;5087404;28;20182;-70
2022/09/12 10:40:03;;;;;;;2.20;2.10;;;-40.00;96.20;;;;;;5082207;28;20270;-73
2022/09/12 10:42:51;;;;;;;2.10;2.00;;;-40.00;93.80;;;;;;5089078;28;20190;-75
2022/09/12 10:45:27;;;;;;;2.03;1.83;;;-40.00;93.80;;;;;;5077932;28;20575;-70
2022/09/12 10:47:57;;;;;;;3.30;2.10;;;-40.00;94.90;;;;;;5077497;28;20336;-72
2022/09/12 10:50:52;;;;;;;2.97;1.57;;;-40.00;94.00;;;;;;5085027;28;20176;-74
2022/09/12 10:53:23;;;;;;;1.77;1.60;;;-40.00;93.80;;;;;;5075776;28;20194;-71
2022/09/12 10:56:12;;;;;;;2.90;2.03;;;-40.00;92.00;;;;;;5084351;28;20544;-69
2022/09/12 10:58:38;;;;;;;1.57;1.47;;;-40.00;92.00;;;;;;5083058;28;20463;-70
2022/09/12 11:01:24;;;;;;;2.13;1.93;;;-40.00;92.10;;;;;;5076446;28;20195;-76
2022/09/12 11:04:32;;;;;;;1.60;1.50;;;-40.00;91.50;;;;;;5077095;28;20176;-75
2022/09/12 11:07:16;;;;;;;1.83;1.73;;;-40.00;91.60;;;;;;5083763;28;20222;-75
2022/09/12 11:10:20;;;;;;;3.43;1.80;;;-40.00;90.70;;;;;;5084477;28;20240;-71
2022/09/12 11:13:09;;;;;;;1.83;1.73;;;-40.00;90.50;;;;;;5077347;28;20482;-70
2022/09/12 11:15:55;;;;;;;5.33;2.57;;;-40.00;86.00;;;;;;5082977;28;20479;-72
2022/09/12 11:18:44;;;;;;;2.07;1.93;;;-40.00;89.30;;;;;;5082250;28;20186;-71
2022/09/12 11:21:29;;;;;;;3.37;2.10;;;-40.00;90.70;;;;;;5077168;28;20217;-70
2022/09/12 11:24:27;;;;;;;3.57;2.33;;;-40.00;84.40;;;;;;5081039;28;20183;-76
2022/09/12 11:27:33;;;;;;;4.00;2.40;;;-40.00;85.90;;;;;;5067052;28;20305;-76
2022/09/12 11:30:09;;;;;;;2.03;1.53;;;-40.00;83.30;;;;;;5059437;28;20188;-69
2022/09/12 11:32:51;;;;;;;2.13;1.83;;;-40.00;77.60;;;;;;5074757;28;20195;-72
2022/09/12 11:35:26;;;;;;;3.80;2.17;;;-40.00;77.40;;;;;;5078655;28;20210;-76
2022/09/12 11:38:13;;;;;;;1.60;1.50;;;-40.00;83.90;;;;;;5076673;28;20186;-72
2022/09/12 11:41:05;;;;;;;1.47;1.37;;;-40.00;80.50;;;;;;5084004;28;20201;-70
2022/09/12 11:43:57;;;;;;;2.33;2.23;;;-40.00;76.70;;;;;;5081843;28;20260;-69
2022/09/12 11:46:35;;;;;;;4.00;1.80;;;-40.00;72.30;;;;;;5073805;28;20237;-72
2022/09/12 11:49:12;;;;;;;1.53;1.43;;;-40.00;69.50;;;;;;5081245;28;20183;-71
2022/09/12 11:52:02;;;;;;;2.17;1.53;;;-40.00;69.50;;;;;;5075963;28;20199;-72
2022/09/12 11:54:56;;;;;;;4.03;3.10;;;-40.00;62.90;;;;;;5075508;28;20207;-70
2022/09/12 11:57:44;;;;;;;2.90;1.53;;;-40.00;58.40;;;;;;5076528;28;20186;-71
2022/09/12 12:00:34;;;;;;;5.80;1.80;;;-40.00;58.20;;;;;;5076235;28;20472;-76
2022/09/12 12:02:59;;;;;;;4.97;1.60;;;-40.00;56.40;;;;;;5076184;28;20199;-72
2022/09/12 12:05:54;;;;;;;10.87;1.83;;;-40.00;53.60;;;;;;5088256;28;20187;-70
2022/09/12 12:08:26;;;;;;;3.03;1.40;;;-40.00;55.80;;;;;;5080407;28;20586;-73
2022/09/12 12:11:01;;;;;;;1.30;1.20;;;-40.00;56.80;;;;;;5082088;28;20473;-75
2022/09/12 12:13:33;;;;;;;1.57;1.37;;;-40.00;52.90;;;;;;5082155;28;20582;-73
2022/09/12 12:16:12;;;;;;;1.27;1.17;;;-40.00;51.40;;;;;;5075990;28;20179;-70
2022/09/12 12:18:39;;;;;;;4.38;1.45;;;-40.00;53.30;;;;;;5075389;28;20194;-72
2022/09/12 12:21:40;;;;;;;2.40;1.52;;;-40.00;53.30;;;;;;5077509;28;20236;-73
2022/09/12 12:24:08;;;;;;;1.55;0.90;;;-40.00;53.70;;;;;;5080159;28;20201;-70
2022/09/12 12:26:54;;;;;;;5.32;1.67;;;-40.00;49.60;;;;;;5082760;28;20625;-72
2022/09/12 12:29:20;;;;;;;1.88;1.00;;;-40.00;51.00;;;;;;5080640;28;20489;-72
2022/09/12 12:31:58;;;;;;;2.03;1.27;;;-40.00;46.70;;;;;;5075443;28;20183;-71
2022/09/12 12:34:35;;;;;;;2.13;1.48;;;-40.00;47.70;;;;;;5080295;28;20183;-71
2022/09/12 12:37:24;;;;;;;1.42;1.23;;;-40.00;48.40;;;;;;5080130;28;20282;-70
2022/09/12 12:39:50;;;;;;;2.38;1.35;;;-40.00;44.30;;;;;;5084659;28;20190;-68
2022/09/12 12:42:34;;;;;;;1.13;0.77;;;-40.00;43.00;;;;;;5082396;28;20185;-72
2022/09/12 12:45:03;;;;;;;1.65;1.55;;;-40.00;47.30;;;;;;5075562;28;20240;-71
2022/09/12 12:47:32;;;;;;;2.55;0.95;;;-40.00;49.00;;;;;;5075457;28;20203;-69
2022/09/12 12:50:19;;;;;;;4.22;1.70;;;-40.00;48.80;;;;;;5079678;28;20594;-70
2022/09/12 12:53:02;;;;;;;2.60;1.50;;;-40.00;48.70;;;;;;5075479;28;20229;-69
2022/09/12 12:55:33;;;;;;;3.70;1.17;;;-40.00;41.80;;;;;;5079490;28;20179;-70
2022/09/12 12:58:03;;;;;;;1.85;1.23;;;-40.00;43.70;;;;;;5078922;28;20175;-70
2022/09/12 13:00:39;;;;;;;2.28;1.38;;;-40.00;43.10;;;;;;5075049;28;20485;-70
2022/09/12 13:03:05;;;;;;;1.13;1.10;;;-40.00;44.80;;;;;;5077572;28;20288;-73
2022/09/12 13:05:50;;;;;;;1.73;1.30;;;-40.00;43.50;;;;;;5080375;28;20600;-69
2022/09/12 13:08:15;;;;;;;1.67;1.58;;;-40.00;45.70;;;;;;5075703;28;20203;-69